Time;durP1;ratioP1;P1;durP2;ratioP2;P2;SDS_P1;SDS_P2;PMS_P1;PMS_P2;Temp;Humidity;BMP_temperature;BMP_pressure;BME280_temperature;BME280_humidity;BME280_pressure;Samples;Min_cycle;Max_cycle;Signal;HPM_P1;HPM_P2
2022/03/06 00:01:44;;;;;;;4.55;4.15;;;;;;;;;;5018493;28;20482;-58
2022/03/06 00:04:09;;;;;;;5.07;4.38;;;;;;;;;;5019617;28;20025;-63
2022/03/06 00:06:35;;;;;;;6.75;6.05;;;;;;;;;;5017148;28;20349;-65
2022/03/06 00:09:00;;;;;;;4.25;3.85;;;;;;;;;;5020935;28;20561;-58
2022/03/06 00:11:26;;;;;;;6.70;5.18;;;;;;;;;;5020325;28;20034;-65
2022/03/06 00:13:51;;;;;;;4.13;3.75;;;;;;;;;;5021811;28;20040;-65
2022/03/06 00:16:16;;;;;;;5.10;4.20;;;;;;;;;;5017206;28;20029;-64
2022/03/06 00:18:42;;;;;;;6.25;5.65;;;;;;;;;;5020105;28;20091;-64
2022/03/06 00:21:09;;;;;;;8.55;4.90;;;;;;;;;;5019154;28;20040;-64
2022/03/06 00:23:34;;;;;;;4.63;4.22;;;;;;;;;;5018252;28;20033;-64
2022/03/06 00:25:59;;;;;;;6.80;5.78;;;;;;;;;;5020762;28;20752;-65
2022/03/06 00:28:25;;;;;;;5.82;4.90;;;;;;;;;;5016609;28;20100;-65
2022/03/06 00:30:50;;;;;;;3.80;3.42;;;;;;;;;;5015818;28;20034;-64
2022/03/06 00:33:16;;;;;;;4.35;3.95;;;;;;;;;;5020440;28;20068;-60
2022/03/06 00:35:41;;;;;;;4.88;4.47;;;;;;;;;;5021861;28;20417;-60
2022/03/06 00:38:07;;;;;;;5.00;4.43;;;;;;;;;;5017916;28;20037;-60
2022/03/06 00:40:32;;;;;;;4.57;3.85;;;;;;;;;;5017811;28;20128;-60
2022/03/06 00:42:57;;;;;;;4.32;3.92;;;;;;;;;;5019588;28;20037;-64
2022/03/06 00:45:23;;;;;;;5.22;4.15;;;;;;;;;;5016171;28;20037;-65
2022/03/06 00:47:49;;;;;;;5.15;4.68;;;;;;;;;;5020952;28;20048;-60
2022/03/06 00:50:14;;;;;;;13.45;7.53;;;;;;;;;;5017574;28;20033;-65
2022/03/06 00:52:40;;;;;;;4.95;4.30;;;;;;;;;;5018864;28;20041;-65
2022/03/06 00:55:06;;;;;;;4.57;3.85;;;;;;;;;;5017952;28;20045;-65
2022/03/06 00:57:32;;;;;;;6.63;4.65;;;;;;;;;;4999599;28;20033;-64
2022/03/06 00:59:57;;;;;;;4.68;4.15;;;;;;;;;;5006516;28;20029;-65
2022/03/06 01:02:22;;;;;;;5.43;4.07;;;;;;;;;;5001442;28;20099;-65
2022/03/06 01:04:48;;;;;;;4.05;3.72;;;;;;;;;;5008962;28;20033;-66
2022/03/06 01:07:14;;;;;;;5.32;4.53;;;;;;;;;;5018940;28;20045;-65
2022/03/06 01:09:39;;;;;;;4.63;4.22;;;;;;;;;;5019400;28;20029;-64
2022/03/06 01:12:05;;;;;;;6.13;4.43;;;;;;;;;;5019526;28;20022;-64
2022/03/06 01:14:31;;;;;;;4.28;3.88;;;;;;;;;;5015578;28;20595;-60
2022/03/06 01:16:56;;;;;;;5.47;4.45;;;;;;;;;;5018200;28;20044;-59
2022/03/06 01:19:21;;;;;;;4.28;3.83;;;;;;;;;;5016268;28;20112;-59
2022/03/06 01:21:47;;;;;;;7.80;4.68;;;;;;;;;;5018066;28;20037;-59
2022/03/06 01:24:13;;;;;;;4.47;4.07;;;;;;;;;;5018486;28;20499;-64
2022/03/06 01:26:38;;;;;;;3.70;3.38;;;;;;;;;;5018471;28;20042;-59
2022/03/06 01:29:04;;;;;;;4.93;4.43;;;;;;;;;;5015939;28;20037;-59
2022/03/06 01:31:29;;;;;;;5.25;4.10;;;;;;;;;;5018797;28;20037;-64
2022/03/06 01:33:55;;;;;;;6.05;5.03;;;;;;;;;;5018906;28;20493;-64
2022/03/06 01:36:20;;;;;;;6.47;5.32;;;;;;;;;;5020097;28;20065;-65
2022/03/06 01:38:46;;;;;;;4.57;4.07;;;;;;;;;;5002795;28;20040;-65
2022/03/06 01:41:11;;;;;;;4.07;3.70;;;;;;;;;;5006768;28;20048;-59
2022/03/06 01:43:37;;;;;;;5.30;4.70;;;;;;;;;;5022486;28;20052;-59
2022/03/06 01:46:03;;;;;;;4.28;3.72;;;;;;;;;;5021027;28;20121;-59
2022/03/06 01:48:28;;;;;;;5.38;4.35;;;;;;;;;;5013265;28;20041;-59
2022/03/06 01:50:54;;;;;;;4.50;4.10;;;;;;;;;;5022262;28;20037;-59
2022/03/06 01:53:20;;;;;;;4.20;3.83;;;;;;;;;;5004158;28;20049;-63
2022/03/06 01:55:46;;;;;;;4.15;3.75;;;;;;;;;;5021398;28;20108;-63
2022/03/06 01:58:12;;;;;;;6.47;4.53;;;;;;;;;;5006673;28;20439;-64
2022/03/06 02:00:44;;;;;;;5.80;4.65;;;;;;;;;;5020393;28;20044;-65
2022/03/06 02:03:10;;;;;;;4.78;4.35;;;;;;;;;;5022485;28;20395;-65
2022/03/06 02:05:38;;;;;;;4.28;3.88;;;;;;;;;;5005048;28;20030;-59
2022/03/06 02:08:05;;;;;;;4.20;3.67;;;;;;;;;;5006495;28;20036;-65
2022/03/06 02:10:31;;;;;;;4.45;4.05;;;;;;;;;;5006029;28;20042;-59
2022/03/06 02:12:58;;;;;;;4.53;3.95;;;;;;;;;;5021622;28;20513;-65
2022/03/06 02:15:24;;;;;;;4.97;4.47;;;;;;;;;;5018604;28;20419;-65
2022/03/06 02:17:49;;;;;;;4.05;3.65;;;;;;;;;;5022649;28;20370;-63
2022/03/06 02:20:20;;;;;;;4.50;4.10;;;;;;;;;;5008088;28;20124;-65
2022/03/06 02:22:55;;;;;;;5.88;4.13;;;;;;;;;;5018876;28;20040;-59
2022/03/06 02:25:29;;;;;;;4.78;4.32;;;;;;;;;;5023238;28;20056;-65
2022/03/06 02:27:57;;;;;;;4.57;4.18;;;;;;;;;;5017654;28;20033;-65
2022/03/06 02:30:26;;;;;;;4.15;3.75;;;;;;;;;;5022303;28;20471;-65
2022/03/06 02:32:52;;;;;;;4.93;3.90;;;;;;;;;;5020394;28;20044;-59
2022/03/06 02:35:19;;;;;;;7.60;4.57;;;;;;;;;;5021560;28;20037;-59
2022/03/06 02:37:44;;;;;;;4.35;3.95;;;;;;;;;;5020134;28;20026;-63
2022/03/06 02:40:11;;;;;;;3.72;3.42;;;;;;;;;;5021190;28;20462;-59
2022/03/06 02:42:39;;;;;;;3.85;3.45;;;;;;;;;;5020824;28;20478;-59
2022/03/06 02:45:14;;;;;;;4.85;4.45;;;;;;;;;;5018189;28;20132;-64
2022/03/06 02:47:40;;;;;;;3.60;3.30;;;;;;;;;;5018151;28;20033;-63
2022/03/06 02:50:09;;;;;;;6.32;4.43;;;;;;;;;;5017318;28;20102;-59
2022/03/06 02:52:34;;;;;;;4.90;3.85;;;;;;;;;;5021358;28;20037;-59
2022/03/06 02:55:00;;;;;;;4.43;4.03;;;;;;;;;;5019016;28;20556;-58
2022/03/06 02:57:26;;;;;;;4.93;4.43;;;;;;;;;;5020252;28;20034;-58
2022/03/06 02:59:52;;;;;;;3.95;3.60;;;;;;;;;;5018420;28;20502;-64
2022/03/06 03:02:17;;;;;;;4.00;3.65;;;;;;;;;;5020381;28;20026;-64
2022/03/06 03:04:42;;;;;;;4.28;3.88;;;;;;;;;;5020029;28;20029;-59
2022/03/06 03:07:08;;;;;;;5.50;4.95;;;;;;;;;;5019842;28;20041;-62
2022/03/06 03:09:34;;;;;;;4.68;4.18;;;;;;;;;;5019748;28;20033;-65
2022/03/06 03:12:00;;;;;;;5.85;4.97;;;;;;;;;;5020956;28;20037;-64
2022/03/06 03:14:25;;;;;;;4.57;4.18;;;;;;;;;;5019199;28;20034;-65
2022/03/06 03:16:51;;;;;;;5.22;4.75;;;;;;;;;;5022000;28;20138;-64
2022/03/06 03:19:18;;;;;;;5.05;4.40;;;;;;;;;;5019063;28;20538;-65
2022/03/06 03:21:44;;;;;;;4.50;4.10;;;;;;;;;;5019888;28;20041;-63
2022/03/06 03:24:09;;;;;;;3.75;3.45;;;;;;;;;;5018667;28;20048;-59
2022/03/06 03:26:34;;;;;;;4.88;4.35;;;;;;;;;;5018451;28;20116;-59
2022/03/06 03:28:59;;;;;;;5.90;3.97;;;;;;;;;;5018867;28;20052;-59
2022/03/06 03:31:25;;;;;;;5.35;4.88;;;;;;;;;;5018041;28;20038;-64
2022/03/06 03:33:50;;;;;;;4.43;3.92;;;;;;;;;;5017275;28;20460;-59
2022/03/06 03:36:16;;;;;;;4.10;3.70;;;;;;;;;;5017530;28;20049;-60
2022/03/06 03:38:41;;;;;;;4.18;3.78;;;;;;;;;;5019484;28;20047;-64
2022/03/06 03:41:08;;;;;;;4.43;4.03;;;;;;;;;;5020704;28;20528;-65
2022/03/06 03:43:34;;;;;;;3.40;3.10;;;;;;;;;;5018909;28;20455;-64
2022/03/06 03:45:59;;;;;;;4.18;3.80;;;;;;;;;;5018743;28;20033;-64
2022/03/06 03:48:27;;;;;;;4.55;4.15;;;;;;;;;;5020918;28;20055;-60
2022/03/06 03:50:53;;;;;;;4.65;3.92;;;;;;;;;;5021190;28;20478;-65
2022/03/06 03:53:19;;;;;;;4.32;3.92;;;;;;;;;;5018163;28;20103;-65
2022/03/06 03:55:45;;;;;;;4.82;4.40;;;;;;;;;;5002829;28;20088;-64
2022/03/06 03:58:10;;;;;;;4.05;3.65;;;;;;;;;;5003216;28;20375;-64
2022/03/06 04:00:35;;;;;;;4.43;4.03;;;;;;;;;;5018889;28;20041;-65
2022/03/06 04:03:01;;;;;;;4.45;4.05;;;;;;;;;;5023518;28;20087;-65
2022/03/06 04:05:26;;;;;;;8.27;4.97;;;;;;;;;;5020468;28;20057;-65
2022/03/06 04:07:52;;;;;;;4.13;3.55;;;;;;;;;;5017629;28;20045;-59
2022/03/06 04:10:17;;;;;;;5.38;4.10;;;;;;;;;;5017382;28;20130;-59
2022/03/06 04:12:42;;;;;;;4.28;3.88;;;;;;;;;;5017417;28;20653;-59
2022/03/06 04:15:08;;;;;;;4.65;4.25;;;;;;;;;;5018119;28;20061;-60
2022/03/06 04:17:33;;;;;;;3.97;3.67;;;;;;;;;;5019172;28;20044;-64
2022/03/06 04:19:58;;;;;;;4.53;4.13;;;;;;;;;;5018868;28;20033;-65
2022/03/06 04:22:24;;;;;;;4.05;3.75;;;;;;;;;;5017813;28;20040;-64
2022/03/06 04:24:49;;;;;;;3.85;3.55;;;;;;;;;;5019401;28;20112;-60
2022/03/06 04:27:14;;;;;;;8.27;4.38;;;;;;;;;;5004402;28;20036;-64
2022/03/06 04:29:40;;;;;;;4.97;4.53;;;;;;;;;;5019410;28;20029;-64
2022/03/06 04:32:06;;;;;;;4.32;3.85;;;;;;;;;;5022304;28;20061;-64
2022/03/06 04:34:31;;;;;;;4.43;4.03;;;;;;;;;;5019974;28;20095;-63
2022/03/06 04:36:56;;;;;;;4.15;3.75;;;;;;;;;;5019393;28;20121;-64
2022/03/06 04:39:22;;;;;;;4.53;4.13;;;;;;;;;;5002365;28;20043;-62
2022/03/06 04:41:47;;;;;;;4.32;3.88;;;;;;;;;;5016404;28;20034;-63
2022/03/06 04:44:13;;;;;;;4.53;4.13;;;;;;;;;;5002076;28;20872;-62
2022/03/06 04:46:38;;;;;;;5.05;4.55;;;;;;;;;;4998908;28;20391;-58
2022/03/06 04:49:04;;;;;;;3.92;3.53;;;;;;;;;;5018571;28;20128;-58
2022/03/06 04:51:29;;;;;;;4.07;3.67;;;;;;;;;;5019330;28;20037;-58
2022/03/06 04:53:55;;;;;;;4.05;3.72;;;;;;;;;;5019524;28;20112;-58
2022/03/06 04:56:20;;;;;;;4.68;3.63;;;;;;;;;;5017668;28;20025;-58
2022/03/06 04:58:46;;;;;;;4.40;4.00;;;;;;;;;;5016007;28;20521;-64
2022/03/06 05:01:11;;;;;;;5.20;4.70;;;;;;;;;;5017876;28;20049;-65
2022/03/06 05:03:36;;;;;;;3.70;3.40;;;;;;;;;;5018617;28;20108;-59
2022/03/06 05:06:02;;;;;;;3.97;3.58;;;;;;;;;;5019959;28;20030;-59
2022/03/06 05:08:27;;;;;;;4.95;4.55;;;;;;;;;;5017435;28;20040;-59
2022/03/06 05:10:54;;;;;;;4.03;3.63;;;;;;;;;;5017700;28;20038;-59
2022/03/06 05:13:21;;;;;;;4.57;4.18;;;;;;;;;;5003662;28;20108;-59
2022/03/06 05:15:46;;;;;;;4.00;3.60;;;;;;;;;;5005667;28;20069;-63
2022/03/06 05:18:11;;;;;;;3.90;3.58;;;;;;;;;;5025054;28;20858;-65
2022/03/06 05:20:37;;;;;;;4.38;3.97;;;;;;;;;;5021145;28;20444;-65
2022/03/06 05:23:03;;;;;;;4.28;3.88;;;;;;;;;;5020108;28;20048;-59
2022/03/06 05:25:28;;;;;;;5.05;4.55;;;;;;;;;;5023471;28;20128;-64
2022/03/06 05:27:54;;;;;;;4.57;4.03;;;;;;;;;;5021142;28;20065;-59
2022/03/06 05:30:19;;;;;;;5.65;3.83;;;;;;;;;;5020994;28;20065;-65
2022/03/06 05:32:45;;;;;;;6.10;4.13;;;;;;;;;;5023827;28;20099;-59
2022/03/06 05:35:10;;;;;;;4.32;3.92;;;;;;;;;;5020249;28;20051;-59
2022/03/06 05:37:36;;;;;;;4.60;4.20;;;;;;;;;;5023709;28;20021;-59
2022/03/06 05:40:03;;;;;;;4.45;4.05;;;;;;;;;;5020810;28;20044;-59
2022/03/06 05:42:29;;;;;;;4.60;4.15;;;;;;;;;;5021129;28;20104;-59
2022/03/06 05:44:54;;;;;;;3.80;3.45;;;;;;;;;;5019339;28;20049;-59
2022/03/06 05:47:19;;;;;;;4.40;3.88;;;;;;;;;;5023661;28;20098;-60
2022/03/06 05:49:45;;;;;;;4.55;3.42;;;;;;;;;;5011243;28;20056;-59
2022/03/06 05:52:10;;;;;;;4.22;3.83;;;;;;;;;;5021820;28;20038;-63
2022/03/06 05:54:36;;;;;;;5.43;3.55;;;;;;;;;;5020372;28;20064;-63
2022/03/06 05:57:01;;;;;;;4.43;4.03;;;;;;;;;;5020731;28;20499;-64
2022/03/06 05:59:27;;;;;;;4.50;3.67;;;;;;;;;;5005321;28;20045;-64
2022/03/06 06:01:52;;;;;;;5.13;3.97;;;;;;;;;;5022004;28;20867;-59
2022/03/06 06:04:18;;;;;;;4.65;3.40;;;;;;;;;;5020754;28;20036;-58
2022/03/06 06:06:43;;;;;;;3.75;3.45;;;;;;;;;;5021732;28;20033;-58
2022/03/06 06:09:09;;;;;;;7.32;3.47;;;;;;;;;;5022074;28;20036;-58
2022/03/06 06:11:34;;;;;;;5.53;5.03;;;;;;;;;;5022320;28;20041;-58
2022/03/06 06:13:59;;;;;;;3.88;3.55;;;;;;;;;;5020559;28;20415;-58
2022/03/06 06:16:25;;;;;;;4.10;3.70;;;;;;;;;;5020244;28;20040;-59
2022/03/06 06:18:50;;;;;;;4.57;4.18;;;;;;;;;;5023010;28;20371;-58
2022/03/06 06:21:18;;;;;;;4.32;3.67;;;;;;;;;;5021703;28;20026;-59
2022/03/06 06:23:44;;;;;;;5.15;4.07;;;;;;;;;;5018918;28;20033;-58
2022/03/06 06:26:10;;;;;;;7.47;4.15;;;;;;;;;;5020613;28;20041;-58
2022/03/06 06:28:35;;;;;;;4.65;4.25;;;;;;;;;;5020884;28;20563;-63
2022/03/06 06:31:01;;;;;;;4.25;3.85;;;;;;;;;;5018530;28;20171;-63
2022/03/06 06:33:27;;;;;;;4.68;4.22;;;;;;;;;;5021395;28;20037;-65
2022/03/06 06:35:53;;;;;;;4.72;4.32;;;;;;;;;;5020446;28;20150;-65
2022/03/06 06:38:20;;;;;;;5.60;4.07;;;;;;;;;;5016307;28;20076;-59
2022/03/06 06:40:47;;;;;;;5.78;4.13;;;;;;;;;;5020947;28;20087;-59
2022/03/06 06:43:12;;;;;;;4.13;3.72;;;;;;;;;;5005488;28;20026;-59
2022/03/06 06:45:37;;;;;;;4.35;3.90;;;;;;;;;;5020295;28;20042;-65
2022/03/06 06:48:03;;;;;;;4.90;4.15;;;;;;;;;;5021949;28;20026;-64
2022/03/06 06:50:29;;;;;;;4.43;3.75;;;;;;;;;;5022153;28;20077;-58
2022/03/06 06:52:54;;;;;;;4.18;3.70;;;;;;;;;;5021858;28;20037;-59
2022/03/06 06:55:19;;;;;;;5.72;5.22;;;;;;;;;;5021063;28;20136;-59
2022/03/06 06:57:44;;;;;;;3.88;3.55;;;;;;;;;;5021183;28;20025;-64
2022/03/06 07:00:10;;;;;;;6.57;4.07;;;;;;;;;;5000341;28;20049;-63
2022/03/06 07:02:36;;;;;;;4.97;4.47;;;;;;;;;;5019636;28;20045;-64
2022/03/06 07:05:02;;;;;;;4.57;4.18;;;;;;;;;;5021928;28;20063;-64
2022/03/06 07:07:27;;;;;;;3.45;3.15;;;;;;;;;;5018569;28;20041;-64
2022/03/06 07:09:53;;;;;;;3.95;3.63;;;;;;;;;;5023303;28;20044;-64
2022/03/06 07:12:18;;;;;;;5.45;4.07;;;;;;;;;;5017448;28;20117;-64
2022/03/06 07:14:43;;;;;;;3.92;3.40;;;;;;;;;;5020511;28;20044;-64
2022/03/06 07:17:09;;;;;;;5.03;3.92;;;;;;;;;;5020743;28;20026;-64
2022/03/06 07:19:34;;;;;;;3.45;3.15;;;;;;;;;;5020164;28;20026;-64
2022/03/06 07:21:59;;;;;;;4.57;3.80;;;;;;;;;;5020685;28;20030;-64
2022/03/06 07:24:26;;;;;;;3.70;3.30;;;;;;;;;;5019061;28;20029;-63
2022/03/06 07:26:51;;;;;;;3.60;3.30;;;;;;;;;;5020193;28;20060;-64
2022/03/06 07:29:17;;;;;;;6.07;4.55;;;;;;;;;;5017633;28;20521;-64
2022/03/06 07:31:42;;;;;;;4.50;4.10;;;;;;;;;;5000952;28;20033;-64
2022/03/06 07:34:07;;;;;;;4.80;3.90;;;;;;;;;;5018258;28;20041;-64
2022/03/06 07:36:33;;;;;;;4.97;3.85;;;;;;;;;;5016899;28;20042;-65
2022/03/06 07:38:58;;;;;;;4.40;4.00;;;;;;;;;;5000212;28;20041;-66
2022/03/06 07:41:24;;;;;;;3.80;3.50;;;;;;;;;;5016108;28;20052;-66
2022/03/06 07:43:49;;;;;;;5.97;5.35;;;;;;;;;;5020229;28;20037;-66
2022/03/06 07:46:14;;;;;;;7.32;5.45;;;;;;;;;;5020851;28;20037;-67
2022/03/06 07:48:40;;;;;;;3.92;3.60;;;;;;;;;;5020183;28;20197;-65
2022/03/06 07:51:05;;;;;;;4.75;4.25;;;;;;;;;;5017880;28;20029;-66
2022/03/06 07:53:31;;;;;;;4.35;3.95;;;;;;;;;;5016231;28;20033;-66
2022/03/06 07:55:56;;;;;;;4.68;4.13;;;;;;;;;;5019153;28;20033;-60
2022/03/06 07:58:22;;;;;;;5.63;5.13;;;;;;;;;;5020725;28;20025;-58
2022/03/06 08:00:47;;;;;;;4.75;4.30;;;;;;;;;;5017984;28;20374;-66
2022/03/06 08:03:13;;;;;;;4.72;4.32;;;;;;;;;;5019780;28;20026;-59
2022/03/06 08:05:38;;;;;;;4.28;3.90;;;;;;;;;;5021122;28;20530;-60
2022/03/06 08:08:04;;;;;;;6.65;4.63;;;;;;;;;;5019521;28;20052;-60
2022/03/06 08:10:30;;;;;;;4.50;3.90;;;;;;;;;;5002668;28;20035;-60
2022/03/06 08:12:55;;;;;;;5.15;4.50;;;;;;;;;;5020406;28;20478;-67
2022/03/06 08:15:20;;;;;;;5.07;4.68;;;;;;;;;;5021009;28;20103;-66
2022/03/06 08:17:46;;;;;;;4.90;4.50;;;;;;;;;;5019492;28;20025;-66
2022/03/06 08:20:12;;;;;;;5.43;4.93;;;;;;;;;;5002222;28;20113;-60
2022/03/06 08:22:37;;;;;;;6.47;4.28;;;;;;;;;;5009931;28;20038;-66
2022/03/06 08:25:04;;;;;;;5.07;4.55;;;;;;;;;;5018341;28;20048;-66
2022/03/06 08:27:30;;;;;;;5.05;4.65;;;;;;;;;;4999968;28;20026;-66
2022/03/06 08:29:56;;;;;;;4.65;4.25;;;;;;;;;;5019748;28;20072;-59
2022/03/06 08:32:21;;;;;;;5.57;5.07;;;;;;;;;;5021158;28;20037;-59
2022/03/06 08:34:51;;;;;;;5.82;5.32;;;;;;;;;;4998858;28;20038;-59
2022/03/06 08:37:19;;;;;;;6.97;4.90;;;;;;;;;;5019009;28;20026;-59
2022/03/06 08:39:48;;;;;;;5.20;4.70;;;;;;;;;;5019022;28;20477;-66
2022/03/06 08:42:14;;;;;;;5.22;4.72;;;;;;;;;;5004158;28;20099;-60
2022/03/06 08:44:40;;;;;;;5.28;4.78;;;;;;;;;;5020276;28;20121;-60
2022/03/06 08:47:06;;;;;;;4.50;4.10;;;;;;;;;;5020226;28;20597;-59
2022/03/06 08:49:31;;;;;;;5.22;4.75;;;;;;;;;;5017926;28;20042;-61
2022/03/06 08:51:57;;;;;;;6.28;5.22;;;;;;;;;;5017279;28;20037;-66
2022/03/06 08:54:22;;;;;;;5.43;4.93;;;;;;;;;;5020359;28;20363;-66
2022/03/06 08:56:48;;;;;;;7.70;5.20;;;;;;;;;;5019527;28;20217;-66
2022/03/06 08:59:13;;;;;;;4.80;4.40;;;;;;;;;;5018516;28;20094;-66
2022/03/06 09:01:38;;;;;;;6.57;5.75;;;;;;;;;;5021229;28;20034;-66
2022/03/06 09:04:05;;;;;;;7.38;5.53;;;;;;;;;;5017863;28;20069;-66
2022/03/06 09:06:30;;;;;;;5.40;4.72;;;;;;;;;;5019216;28;20030;-65
2022/03/06 09:08:56;;;;;;;5.55;5.07;;;;;;;;;;5019440;28;20091;-67
2022/03/06 09:11:21;;;;;;;6.18;5.32;;;;;;;;;;5005307;28;20068;-66
2022/03/06 09:13:47;;;;;;;5.43;4.93;;;;;;;;;;5007869;28;20037;-59
2022/03/06 09:16:13;;;;;;;5.05;4.55;;;;;;;;;;5019706;28;20033;-59
2022/03/06 09:18:38;;;;;;;4.65;4.25;;;;;;;;;;5018423;28;20104;-66
2022/03/06 09:21:04;;;;;;;5.30;4.80;;;;;;;;;;5018780;28;20037;-67
2022/03/06 09:23:29;;;;;;;5.15;4.63;;;;;;;;;;5016635;28;20034;-67
2022/03/06 09:25:55;;;;;;;4.75;4.35;;;;;;;;;;5020683;28;20132;-60
2022/03/06 09:28:20;;;;;;;5.30;4.28;;;;;;;;;;5020130;28;20044;-60
2022/03/06 09:30:46;;;;;;;4.65;4.25;;;;;;;;;;5016695;28;20121;-67
2022/03/06 09:33:11;;;;;;;4.95;4.55;;;;;;;;;;5000832;28;20033;-66
2022/03/06 09:35:37;;;;;;;5.60;5.10;;;;;;;;;;5001302;28;20045;-60
2022/03/06 09:38:03;;;;;;;4.95;4.55;;;;;;;;;;5020581;28;20041;-61
2022/03/06 09:40:28;;;;;;;5.07;4.68;;;;;;;;;;5004687;28;20217;-60
2022/03/06 09:42:54;;;;;;;4.72;4.13;;;;;;;;;;5016626;28;20052;-60
2022/03/06 09:45:21;;;;;;;4.90;4.50;;;;;;;;;;5018674;28;20049;-60
2022/03/06 09:47:47;;;;;;;4.65;4.25;;;;;;;;;;5016034;28;20131;-66
2022/03/06 09:50:14;;;;;;;5.22;4.72;;;;;;;;;;5017638;28;20065;-60
2022/03/06 09:52:39;;;;;;;4.45;4.05;;;;;;;;;;5020116;28;20489;-67
2022/03/06 09:55:06;;;;;;;5.47;5.07;;;;;;;;;;5018352;28;20112;-67
2022/03/06 09:57:31;;;;;;;5.30;4.90;;;;;;;;;;5020732;28;20370;-68
2022/03/06 09:59:57;;;;;;;5.32;4.93;;;;;;;;;;5005740;28;20052;-67
2022/03/06 10:02:22;;;;;;;4.50;4.10;;;;;;;;;;5025296;28;20021;-67
2022/03/06 10:04:48;;;;;;;6.13;5.53;;;;;;;;;;5026671;28;20041;-60
2022/03/06 10:07:15;;;;;;;5.55;5.05;;;;;;;;;;5021903;28;20372;-61
2022/03/06 10:09:43;;;;;;;5.20;4.80;;;;;;;;;;5023653;28;20038;-60
2022/03/06 10:12:40;;;;;;;6.72;6.15;;;;;;;;;;5019299;28;20037;-61
2022/03/06 10:15:07;;;;;;;4.90;4.47;;;;;;;;;;5011178;28;20558;-60
2022/03/06 10:17:34;;;;;;;5.05;4.65;;;;;;;;;;5022388;28;20065;-60
2022/03/06 10:20:11;;;;;;;5.47;5.00;;;;;;;;;;5020060;28;20121;-60
2022/03/06 10:22:39;;;;;;;5.13;4.72;;;;;;;;;;5020959;28;20090;-66
2022/03/06 10:25:10;;;;;;;5.60;5.18;;;;;;;;;;5020187;28;20088;-66
2022/03/06 10:27:49;;;;;;;7.47;6.20;;;;;;;;;;5023425;28;20065;-61
2022/03/06 10:30:37;;;;;;;5.85;5.35;;;;;;;;;;5020493;28;20068;-60
2022/03/06 10:33:05;;;;;;;5.75;5.25;;;;;;;;;;5021443;28;20095;-62
2022/03/06 10:35:36;;;;;;;5.10;4.68;;;;;;;;;;5022221;28;20037;-60
2022/03/06 10:38:19;;;;;;;6.72;6.03;;;;;;;;;;5018736;28;20038;-60
2022/03/06 10:40:45;;;;;;;5.43;5.00;;;;;;;;;;5020015;28;20053;-60
2022/03/06 10:43:27;;;;;;;5.70;5.10;;;;;;;;;;5018356;28;20076;-67
2022/03/06 10:46:10;;;;;;;7.40;6.70;;;;;;;;;;5019828;28;20409;-67
2022/03/06 10:48:36;;;;;;;5.70;5.20;;;;;;;;;;5021190;28;20038;-67
2022/03/06 10:51:11;;;;;;;5.10;4.70;;;;;;;;;;5019334;28;20033;-60
2022/03/06 10:53:36;;;;;;;6.60;6.10;;;;;;;;;;5021265;28;20040;-61
2022/03/06 10:56:08;;;;;;;6.72;6.13;;;;;;;;;;5006747;28;20025;-60
2022/03/06 10:58:36;;;;;;;6.05;5.55;;;;;;;;;;5020378;28;20058;-66
2022/03/06 11:01:02;;;;;;;6.30;5.80;;;;;;;;;;5020985;28;20033;-67
2022/03/06 11:03:30;;;;;;;6.35;5.85;;;;;;;;;;5017638;28;20370;-60
2022/03/06 11:05:56;;;;;;;6.30;5.70;;;;;;;;;;5022285;28;20486;-59
2022/03/06 11:08:24;;;;;;;5.10;4.60;;;;;;;;;;5017133;28;20072;-60
2022/03/06 11:10:50;;;;;;;5.43;4.93;;;;;;;;;;5018498;28;20491;-68
2022/03/06 11:13:15;;;;;;;6.95;6.32;;;;;;;;;;5020104;28;20117;-67
2022/03/06 11:15:42;;;;;;;5.53;5.07;;;;;;;;;;5019423;28;20078;-68
2022/03/06 11:18:07;;;;;;;5.65;5.15;;;;;;;;;;5021938;28;20110;-59
2022/03/06 11:20:35;;;;;;;5.35;4.95;;;;;;;;;;5021773;28;20033;-60
2022/03/06 11:23:19;;;;;;;7.07;6.47;;;;;;;;;;5019900;28;20061;-68
2022/03/06 11:26:10;;;;;;;5.90;5.40;;;;;;;;;;5020371;28;20133;-68
2022/03/06 11:29:19;;;;;;;16.67;6.43;;;;;;;;;;5006595;28;20034;-68
2022/03/06 11:31:53;;;;;;;6.90;6.32;;;;;;;;;;5010523;28;20041;-68
2022/03/06 11:34:39;;;;;;;6.30;5.80;;;;;;;;;;5021490;28;20038;-68
2022/03/06 11:37:17;;;;;;;6.30;5.80;;;;;;;;;;5022083;28;20459;-68
2022/03/06 11:39:42;;;;;;;6.65;6.00;;;;;;;;;;5009380;28;20049;-61
2022/03/06 11:42:09;;;;;;;7.28;6.65;;;;;;;;;;5019231;28;20037;-60
2022/03/06 11:44:36;;;;;;;6.38;5.88;;;;;;;;;;5007468;28;20029;-61
2022/03/06 11:47:18;;;;;;;6.45;5.95;;;;;;;;;;5002266;28;20041;-60
2022/03/06 11:49:52;;;;;;;6.45;5.95;;;;;;;;;;5019365;28;20033;-67
2022/03/06 11:52:29;;;;;;;6.45;5.85;;;;;;;;;;5017672;28;20026;-68
2022/03/06 11:54:55;;;;;;;6.57;5.97;;;;;;;;;;5020500;28;20048;-68
2022/03/06 11:57:41;;;;;;;5.78;5.38;;;;;;;;;;5020494;28;20045;-69
2022/03/06 12:00:21;;;;;;;6.63;5.93;;;;;;;;;;5013641;28;20056;-60
2022/03/06 12:02:51;;;;;;;6.63;6.13;;;;;;;;;;5021293;28;20113;-68
2022/03/06 12:05:20;;;;;;;5.75;5.25;;;;;;;;;;5018553;28;20133;-60
2022/03/06 12:07:47;;;;;;;6.82;6.22;;;;;;;;;;5019621;28;20041;-61
2022/03/06 12:10:14;;;;;;;6.15;5.65;;;;;;;;;;5019409;28;20112;-60
2022/03/06 12:12:40;;;;;;;6.65;6.07;;;;;;;;;;5019038;28;20160;-59
2022/03/06 12:15:14;;;;;;;6.53;5.88;;;;;;;;;;4998813;28;20525;-67
2022/03/06 12:17:40;;;;;;;6.47;5.97;;;;;;;;;;5019185;28;20060;-60
2022/03/06 12:20:08;;;;;;;7.68;7.07;;;;;;;;;;5020889;28;20033;-60
2022/03/06 12:22:36;;;;;;;7.45;6.85;;;;;;;;;;5018925;28;20036;-67
2022/03/06 12:25:07;;;;;;;6.30;5.80;;;;;;;;;;5020018;28;20603;-67
2022/03/06 12:27:33;;;;;;;7.75;7.15;;;;;;;;;;5019143;28;20458;-67
2022/03/06 12:30:07;;;;;;;6.55;6.05;;;;;;;;;;5019112;28;20103;-67
2022/03/06 12:32:34;;;;;;;6.20;5.68;;;;;;;;;;5018280;28;20036;-66
2022/03/06 12:35:22;;;;;;;5.68;5.20;;;;;;;;;;5016513;28;20116;-66
2022/03/06 12:37:50;;;;;;;5.80;5.30;;;;;;;;;;5017199;28;20100;-67
2022/03/06 12:40:24;;;;;;;7.40;6.38;;;;;;;;;;5020455;28;20060;-66
2022/03/06 12:43:11;;;;;;;6.32;5.82;;;;;;;;;;5004634;28;20071;-69
2022/03/06 12:45:36;;;;;;;6.15;5.65;;;;;;;;;;5017870;28;20045;-67
2022/03/06 12:48:03;;;;;;;11.32;5.78;;;;;;;;;;5019970;28;20087;-67
2022/03/06 12:50:28;;;;;;;7.00;6.50;;;;;;;;;;5002272;28;20359;-69
2022/03/06 12:52:57;;;;;;;6.93;6.32;;;;;;;;;;5018766;28;20094;-65
2022/03/06 12:55:24;;;;;;;7.75;7.15;;;;;;;;;;4987212;28;20065;-67
2022/03/06 12:57:55;;;;;;;6.72;6.05;;;;;;;;;;5020555;28;20033;-66
2022/03/06 13:00:26;;;;;;;7.13;6.53;;;;;;;;;;5019069;28;20057;-68
2022/03/06 13:02:54;;;;;;;7.40;6.80;;;;;;;;;;5014307;28;20406;-67
2022/03/06 13:05:23;;;;;;;7.60;6.93;;;;;;;;;;5018045;28;20121;-67
2022/03/06 13:07:49;;;;;;;7.93;7.22;;;;;;;;;;5016082;28;20034;-69
2022/03/06 13:10:17;;;;;;;7.35;6.68;;;;;;;;;;5020643;28;20025;-67
2022/03/06 13:12:48;;;;;;;6.38;5.88;;;;;;;;;;5020963;28;20042;-66
2022/03/06 13:15:13;;;;;;;6.53;5.93;;;;;;;;;;5020372;28;20068;-65
2022/03/06 13:17:44;;;;;;;6.15;5.63;;;;;;;;;;5016711;28;20057;-67
2022/03/06 13:20:10;;;;;;;;;;;;;;;;;;5018583;28;20064;-59
2022/03/06 13:22:36;;;;;;;5.80;5.30;;;;;;;;;;5019022;28;19944;-69
2022/03/06 13:25:03;;;;;;;6.30;5.80;;;;;;;;;;5021976;28;20061;-69
2022/03/06 13:27:34;;;;;;;6.40;5.88;;;;;;;;;;5021068;28;20025;-60
2022/03/06 13:30:16;;;;;;;6.25;5.75;;;;;;;;;;5018742;28;20037;-60
2022/03/06 13:32:56;;;;;;;6.00;5.50;;;;;;;;;;5020676;28;20064;-69
2022/03/06 13:35:42;;;;;;;6.03;5.53;;;;;;;;;;5023739;28;20041;-70
2022/03/06 13:38:13;;;;;;;6.63;6.13;;;;;;;;;;5022805;28;20171;-70
2022/03/06 13:40:44;;;;;;;6.50;6.00;;;;;;;;;;4995526;28;20115;-68
2022/03/06 13:43:10;;;;;;;6.35;5.85;;;;;;;;;;5023972;28;20073;-60
2022/03/06 13:45:37;;;;;;;6.10;5.50;;;;;;;;;;5006721;28;20049;-61
2022/03/06 13:48:06;;;;;;;6.57;6.07;;;;;;;;;;5020286;28;20045;-60
2022/03/06 13:50:41;;;;;;;6.85;6.25;;;;;;;;;;5017161;28;20029;-60
2022/03/06 13:53:09;;;;;;;5.97;5.50;;;;;;;;;;5023498;28;20029;-60
2022/03/06 13:55:47;;;;;;;6.47;5.97;;;;;;;;;;5022239;28;20034;-60
2022/03/06 13:58:17;;;;;;;7.88;7.28;;;;;;;;;;5018532;28;20564;-61
2022/03/06 14:00:57;;;;;;;6.68;6.18;;;;;;;;;;5021557;28;20050;-60
2022/03/06 14:03:32;;;;;;;6.68;6.18;;;;;;;;;;5005459;28;20398;-59
2022/03/06 14:05:59;;;;;;;6.82;6.20;;;;;;;;;;5021871;28;20038;-60
2022/03/06 14:08:29;;;;;;;6.10;5.60;;;;;;;;;;5016286;28;20072;-60
2022/03/06 14:11:00;;;;;;;5.20;4.80;;;;;;;;;;5019427;28;20084;-59
2022/03/06 14:13:26;;;;;;;6.43;5.88;;;;;;;;;;4995974;28;20034;-59
2022/03/06 14:15:53;;;;;;;6.05;5.55;;;;;;;;;;5003674;28;20159;-59
2022/03/06 14:18:45;;;;;;;6.50;5.07;;;;;;;;;;5022488;28;20029;-59
2022/03/06 14:21:27;;;;;;;5.85;5.35;;;;;;;;;;5021116;28;20101;-59
2022/03/06 14:23:54;;;;;;;6.22;5.65;;;;;;;;;;5021119;28;20128;-60
2022/03/06 14:26:25;;;;;;;7.13;5.85;;;;;;;;;;5018772;28;20034;-60
2022/03/06 14:28:51;;;;;;;5.68;5.18;;;;;;;;;;5021340;28;20482;-60
2022/03/06 14:31:17;;;;;;;5.18;4.78;;;;;;;;;;5021184;28;20050;-60
2022/03/06 14:33:43;;;;;;;5.50;5.10;;;;;;;;;;5020589;28;20044;-59
2022/03/06 14:36:09;;;;;;;6.22;5.63;;;;;;;;;;5020096;28;20038;-62
2022/03/06 14:38:34;;;;;;;6.25;5.75;;;;;;;;;;5000858;28;20112;-65
2022/03/06 14:41:00;;;;;;;5.97;5.47;;;;;;;;;;5007814;28;20087;-61
2022/03/06 14:43:25;;;;;;;5.75;5.25;;;;;;;;;;5020454;28;20032;-60
2022/03/06 14:45:51;;;;;;;5.95;5.45;;;;;;;;;;5020295;28;20045;-59